Time;durP1;ratioP1;P1;durP2;ratioP2;P2;SDS_P1;SDS_P2;PMS_P1;PMS_P2;Temp;Humidity;BMP_temperature;BMP_pressure;BME280_temperature;BME280_humidity;BME280_pressure;Samples;Min_cycle;Max_cycle;Signal;HPM_P1;HPM_P2
2021/06/07 00:00:24;;;;;;;6.30;2.30;;;;;;;;;;5100083;28;20396;-68
2021/06/07 00:02:50;;;;;;;6.43;2.40;;;;;;;;;;5104943;28;20392;-68
2021/06/07 00:05:26;;;;;;;4.90;2.28;;;;;;;;;;5102268;28;20849;-69
2021/06/07 00:07:52;;;;;;;4.47;2.33;;;;;;;;;;5103872;28;20392;-69
2021/06/07 00:10:19;;;;;;;5.47;2.25;;;;;;;;;;5105101;28;20397;-68
2021/06/07 00:12:59;;;;;;;5.15;2.50;;;;;;;;;;5105046;28;20915;-69
2021/06/07 00:15:26;;;;;;;4.97;2.33;;;;;;;;;;5102597;28;20882;-67
2021/06/07 00:17:52;;;;;;;6.45;2.58;;;;;;;;;;5104677;28;20475;-67
2021/06/07 00:20:22;;;;;;;5.57;2.40;;;;;;;;;;5099613;28;20917;-67
2021/06/07 00:22:48;;;;;;;7.30;2.60;;;;;;;;;;5102514;28;20726;-67
2021/06/07 00:25:14;;;;;;;5.15;2.40;;;;;;;;;;5103772;28;20410;-67
2021/06/07 00:27:40;;;;;;;6.05;2.47;;;;;;;;;;5099811;28;20477;-67
2021/06/07 00:30:07;;;;;;;4.95;2.60;;;;;;;;;;5106646;28;20404;-67
2021/06/07 00:32:33;;;;;;;7.32;2.55;;;;;;;;;;5102971;28;20427;-66
2021/06/07 00:34:59;;;;;;;4.60;2.50;;;;;;;;;;5103510;28;20405;-66
2021/06/07 00:37:25;;;;;;;5.28;2.60;;;;;;;;;;5097542;28;20392;-67
2021/06/07 00:39:51;;;;;;;4.82;2.33;;;;;;;;;;5106991;28;20478;-67
2021/06/07 00:42:17;;;;;;;4.85;2.50;;;;;;;;;;5101722;28;20412;-66
2021/06/07 00:44:45;;;;;;;5.60;2.42;;;;;;;;;;5105337;28;20457;-66
2021/06/07 00:47:11;;;;;;;6.65;2.40;;;;;;;;;;5101922;28;20403;-67
2021/06/07 00:49:37;;;;;;;4.18;2.30;;;;;;;;;;5104842;28;20505;-66
2021/06/07 00:52:04;;;;;;;5.72;2.60;;;;;;;;;;5102464;28;20868;-67
2021/06/07 00:54:29;;;;;;;5.75;2.40;;;;;;;;;;5104536;28;20411;-67
2021/06/07 00:56:55;;;;;;;4.65;2.22;;;;;;;;;;5106190;28;20392;-67
2021/06/07 00:59:21;;;;;;;5.10;2.60;;;;;;;;;;5104357;28;20399;-69
2021/06/07 01:01:48;;;;;;;5.65;2.45;;;;;;;;;;5100921;28;20853;-67
2021/06/07 01:04:13;;;;;;;5.10;2.30;;;;;;;;;;5101467;28;20467;-67
2021/06/07 01:06:41;;;;;;;5.57;2.17;;;;;;;;;;5103042;28;20397;-67
2021/06/07 01:09:08;;;;;;;5.07;2.45;;;;;;;;;;5102092;28;20396;-68
2021/06/07 01:11:36;;;;;;;4.80;2.55;;;;;;;;;;5103133;28;20431;-67
2021/06/07 01:14:03;;;;;;;5.30;2.60;;;;;;;;;;5103819;28;20441;-68
2021/06/07 01:16:29;;;;;;;5.95;2.53;;;;;;;;;;5086845;28;20932;-67
2021/06/07 01:18:55;;;;;;;4.82;2.65;;;;;;;;;;5103687;28;20489;-67
2021/06/07 01:21:23;;;;;;;5.45;2.88;;;;;;;;;;5101677;28;20472;-67
2021/06/07 01:23:49;;;;;;;6.05;2.70;;;;;;;;;;5102331;28;20412;-67
2021/06/07 01:26:17;;;;;;;5.20;2.50;;;;;;;;;;5103455;28;20392;-67
2021/06/07 01:28:43;;;;;;;6.43;2.85;;;;;;;;;;5103039;28;20407;-66
2021/06/07 01:31:11;;;;;;;6.90;2.67;;;;;;;;;;5087836;28;20430;-67
2021/06/07 01:33:37;;;;;;;4.45;2.65;;;;;;;;;;5082563;28;20394;-66
2021/06/07 01:36:04;;;;;;;7.80;2.67;;;;;;;;;;5082571;28;20713;-67
2021/06/07 01:38:30;;;;;;;5.97;2.70;;;;;;;;;;5083322;28;20401;-67
2021/06/07 01:40:58;;;;;;;4.93;2.60;;;;;;;;;;5080483;28;20937;-67
2021/06/07 01:43:24;;;;;;;4.18;2.58;;;;;;;;;;5082967;28;20406;-66
2021/06/07 01:45:51;;;;;;;6.47;2.75;;;;;;;;;;5084280;28;20430;-66
2021/06/07 01:48:18;;;;;;;4.57;2.65;;;;;;;;;;5065368;28;20875;-66
2021/06/07 01:50:45;;;;;;;5.10;2.83;;;;;;;;;;5082655;28;20431;-66
2021/06/07 01:53:12;;;;;;;5.97;2.70;;;;;;;;;;5078700;28;20407;-67
2021/06/07 01:55:42;;;;;;;5.63;2.80;;;;;;;;;;5080265;28;20409;-66
2021/06/07 01:58:09;;;;;;;5.17;3.10;;;;;;;;;;5075964;28;20480;-66
2021/06/07 02:00:35;;;;;;;5.47;2.90;;;;;;;;;;5081037;28;20392;-67
2021/06/07 02:03:01;;;;;;;5.17;2.60;;;;;;;;;;5082101;28;20430;-67
2021/06/07 02:05:28;;;;;;;7.22;3.30;;;;;;;;;;5083394;28;20385;-67
2021/06/07 02:07:55;;;;;;;6.25;3.08;;;;;;;;;;5084972;28;20405;-67
2021/06/07 02:10:23;;;;;;;7.10;3.10;;;;;;;;;;5086524;28;20859;-67
2021/06/07 02:12:49;;;;;;;6.13;3.20;;;;;;;;;;5085748;28;20429;-66
2021/06/07 02:15:15;;;;;;;6.23;3.07;;;;;;;;;;5088942;28;20480;-66
2021/06/07 02:17:41;;;;;;;6.60;2.72;;;;;;;;;;5087584;28;20427;-66
2021/06/07 02:20:10;;;;;;;6.28;2.90;;;;;;;;;;5083933;28;20397;-67
2021/06/07 02:22:37;;;;;;;5.93;2.70;;;;;;;;;;5086790;28;20394;-66
2021/06/07 02:25:04;;;;;;;7.40;3.00;;;;;;;;;;5085174;28;20879;-67
2021/06/07 02:27:30;;;;;;;4.85;2.72;;;;;;;;;;5085825;28;20397;-67
2021/06/07 02:29:57;;;;;;;4.60;2.50;;;;;;;;;;5094025;28;20418;-66
2021/06/07 02:32:23;;;;;;;6.43;3.13;;;;;;;;;;5106359;28;20869;-67
2021/06/07 02:34:49;;;;;;;5.63;3.08;;;;;;;;;;5105958;28;20399;-67
2021/06/07 02:37:15;;;;;;;5.73;3.10;;;;;;;;;;5105979;28;20796;-66
2021/06/07 02:39:41;;;;;;;4.88;2.90;;;;;;;;;;5106185;28;20450;-67
2021/06/07 02:42:08;;;;;;;5.63;3.20;;;;;;;;;;5105997;28;20388;-67
2021/06/07 02:44:34;;;;;;;6.20;3.30;;;;;;;;;;5104560;28;20407;-67
2021/06/07 02:47:00;;;;;;;5.18;2.80;;;;;;;;;;5105436;28;21036;-66
2021/06/07 02:49:25;;;;;;;5.67;3.20;;;;;;;;;;5102704;28;20510;-67
2021/06/07 02:51:51;;;;;;;4.55;2.70;;;;;;;;;;5105480;28;20427;-66
2021/06/07 02:54:17;;;;;;;6.40;3.42;;;;;;;;;;5106616;28;20433;-68
2021/06/07 02:56:43;;;;;;;5.78;3.00;;;;;;;;;;5106435;28;20866;-67
2021/06/07 02:59:09;;;;;;;4.78;3.30;;;;;;;;;;5101660;28;20885;-66
2021/06/07 03:01:35;;;;;;;6.97;3.30;;;;;;;;;;5105638;28;20910;-67
2021/06/07 03:04:01;;;;;;;5.00;2.90;;;;;;;;;;5103351;28;20408;-67
2021/06/07 03:06:27;;;;;;;5.05;3.08;;;;;;;;;;5106447;28;20384;-67
2021/06/07 03:08:53;;;;;;;6.17;3.30;;;;;;;;;;5106164;28;20543;-67
2021/06/07 03:11:19;;;;;;;4.78;2.80;;;;;;;;;;5106242;28;20952;-67
2021/06/07 03:13:45;;;;;;;7.40;3.45;;;;;;;;;;5109698;28;20730;-67
2021/06/07 03:16:12;;;;;;;5.30;2.90;;;;;;;;;;5106065;28;20404;-67
2021/06/07 03:18:38;;;;;;;4.65;2.88;;;;;;;;;;5106871;28;20391;-67
2021/06/07 03:21:05;;;;;;;4.20;2.60;;;;;;;;;;5105280;28;20462;-67
2021/06/07 03:23:32;;;;;;;6.00;2.90;;;;;;;;;;5106406;28;20453;-67
2021/06/07 03:25:58;;;;;;;5.50;2.78;;;;;;;;;;5097506;28;20398;-67
2021/06/07 03:28:24;;;;;;;5.80;2.90;;;;;;;;;;5103706;28;20388;-67
2021/06/07 03:30:51;;;;;;;3.70;2.28;;;;;;;;;;5087681;28;20556;-68
2021/06/07 03:33:18;;;;;;;5.22;2.60;;;;;;;;;;5084811;28;20885;-68
2021/06/07 03:35:44;;;;;;;4.35;2.50;;;;;;;;;;5089550;28;20476;-67
2021/06/07 03:38:13;;;;;;;3.78;2.40;;;;;;;;;;5087139;28;20394;-67
2021/06/07 03:40:40;;;;;;;4.73;3.03;;;;;;;;;;5102216;28;20441;-67
2021/06/07 03:43:08;;;;;;;5.22;2.50;;;;;;;;;;5107563;28;20475;-67
2021/06/07 03:45:35;;;;;;;4.22;2.50;;;;;;;;;;5102938;28;20424;-67
2021/06/07 03:48:01;;;;;;;5.38;2.95;;;;;;;;;;5103612;28;21165;-67
2021/06/07 03:50:28;;;;;;;5.72;3.35;;;;;;;;;;5104139;28;20483;-67
2021/06/07 03:52:55;;;;;;;5.32;3.10;;;;;;;;;;5105297;28;20504;-68
2021/06/07 03:55:22;;;;;;;6.93;3.08;;;;;;;;;;5106090;28;20392;-67
2021/06/07 03:57:48;;;;;;;5.22;3.10;;;;;;;;;;5105444;28;20392;-68
2021/06/07 04:00:16;;;;;;;6.03;3.38;;;;;;;;;;5102643;28;20392;-68
2021/06/07 04:02:43;;;;;;;5.60;3.45;;;;;;;;;;5103649;28;20719;-67
2021/06/07 04:05:09;;;;;;;4.95;3.13;;;;;;;;;;5103207;28;20475;-69
2021/06/07 04:07:36;;;;;;;5.85;3.40;;;;;;;;;;5106114;28;20387;-67
2021/06/07 04:10:07;;;;;;;5.00;3.20;;;;;;;;;;5101376;28;20886;-67
2021/06/07 04:12:33;;;;;;;6.53;3.50;;;;;;;;;;5103704;28;20421;-67
2021/06/07 04:14:59;;;;;;;6.43;3.10;;;;;;;;;;5103709;28;20427;-67
2021/06/07 04:17:25;;;;;;;5.80;3.35;;;;;;;;;;5089744;28;20388;-67
2021/06/07 04:19:51;;;;;;;5.68;3.70;;;;;;;;;;5093902;28;20390;-67
2021/06/07 04:22:17;;;;;;;5.63;3.80;;;;;;;;;;5103460;28;20955;-67
2021/06/07 04:24:45;;;;;;;5.77;3.60;;;;;;;;;;5097695;28;20838;-66
2021/06/07 04:27:13;;;;;;;5.45;3.67;;;;;;;;;;5100519;28;20392;-67
2021/06/07 04:29:39;;;;;;;6.22;3.40;;;;;;;;;;5100889;28;20411;-66
2021/06/07 04:32:05;;;;;;;6.68;3.75;;;;;;;;;;5103791;28;20429;-67
2021/06/07 04:34:31;;;;;;;5.18;3.50;;;;;;;;;;5103631;28;20730;-66
2021/06/07 04:36:57;;;;;;;8.30;3.60;;;;;;;;;;5102225;28;20404;-66
2021/06/07 04:39:23;;;;;;;6.13;3.72;;;;;;;;;;5101569;28;20461;-66
2021/06/07 04:41:49;;;;;;;8.52;4.10;;;;;;;;;;5096019;28;20430;-66
2021/06/07 04:44:15;;;;;;;6.07;3.83;;;;;;;;;;5102171;28;20778;-67
2021/06/07 04:46:41;;;;;;;6.72;4.10;;;;;;;;;;5101721;28;20484;-67
2021/06/07 04:49:07;;;;;;;6.85;3.70;;;;;;;;;;5103135;28;20388;-66
2021/06/07 04:51:33;;;;;;;5.47;3.58;;;;;;;;;;5099795;28;20858;-66
2021/06/07 04:53:59;;;;;;;6.68;3.90;;;;;;;;;;5100799;28;20716;-66
2021/06/07 04:56:25;;;;;;;5.97;3.72;;;;;;;;;;5101794;28;20399;-66
2021/06/07 04:58:51;;;;;;;5.93;3.83;;;;;;;;;;5102176;28;20407;-66
2021/06/07 05:01:17;;;;;;;6.10;3.78;;;;;;;;;;5099830;28;20399;-66
2021/06/07 05:03:43;;;;;;;5.20;3.30;;;;;;;;;;5098153;28;20474;-66
2021/06/07 05:06:09;;;;;;;6.93;3.67;;;;;;;;;;5101590;28;20476;-66
2021/06/07 05:08:35;;;;;;;4.63;3.10;;;;;;;;;;5104268;28;20928;-66
2021/06/07 05:11:01;;;;;;;5.80;3.28;;;;;;;;;;5104840;28;20400;-66
2021/06/07 05:13:28;;;;;;;6.53;3.47;;;;;;;;;;5096857;28;20414;-66
2021/06/07 05:15:54;;;;;;;6.43;3.45;;;;;;;;;;5101441;28;20402;-67
2021/06/07 05:18:20;;;;;;;6.43;3.55;;;;;;;;;;5102158;28;20392;-67
2021/06/07 05:20:46;;;;;;;5.25;3.67;;;;;;;;;;5102163;28;20416;-66
2021/06/07 05:23:13;;;;;;;5.53;3.88;;;;;;;;;;5099738;28;20395;-66
2021/06/07 05:25:40;;;;;;;6.72;3.50;;;;;;;;;;5105973;28;20448;-66
2021/06/07 05:28:07;;;;;;;5.80;3.50;;;;;;;;;;5102151;28;20446;-66
2021/06/07 05:30:34;;;;;;;6.10;4.10;;;;;;;;;;5103334;28;20444;-66
2021/06/07 05:33:01;;;;;;;5.93;3.60;;;;;;;;;;5095515;28;20431;-66
2021/06/07 05:35:29;;;;;;;6.35;3.40;;;;;;;;;;5095507;28;20729;-67
2021/06/07 05:37:57;;;;;;;6.95;3.85;;;;;;;;;;5102418;28;20393;-66
2021/06/07 05:40:23;;;;;;;5.50;3.45;;;;;;;;;;5094015;28;20439;-67
2021/06/07 05:42:51;;;;;;;6.20;3.80;;;;;;;;;;5099786;28;20404;-67
2021/06/07 05:45:17;;;;;;;5.60;3.35;;;;;;;;;;5095940;28;20485;-66
2021/06/07 05:47:44;;;;;;;6.18;3.60;;;;;;;;;;5105984;28;20439;-66
2021/06/07 05:50:12;;;;;;;5.50;3.42;;;;;;;;;;5107906;28;20876;-67
2021/06/07 05:52:45;;;;;;;5.70;3.17;;;;;;;;;;5103544;28;20421;-66
2021/06/07 05:55:12;;;;;;;5.30;3.33;;;;;;;;;;5103828;28;20405;-67
2021/06/07 05:57:38;;;;;;;7.43;3.40;;;;;;;;;;5102941;28;20942;-67
2021/06/07 06:00:04;;;;;;;6.70;4.20;;;;;;;;;;5103185;28;20396;-67
2021/06/07 06:02:30;;;;;;;6.50;3.70;;;;;;;;;;5105823;28;20411;-67
2021/06/07 06:04:56;;;;;;;6.90;3.78;;;;;;;;;;5104488;28;20723;-66
2021/06/07 06:07:22;;;;;;;7.57;3.67;;;;;;;;;;5097935;28;20830;-67
2021/06/07 06:09:48;;;;;;;6.65;3.00;;;;;;;;;;5103423;28;20398;-67
2021/06/07 06:12:14;;;;;;;8.25;3.55;;;;;;;;;;5099828;28;20478;-67
2021/06/07 06:14:40;;;;;;;6.10;3.20;;;;;;;;;;5105033;28;20500;-68
2021/06/07 06:17:06;;;;;;;4.85;2.90;;;;;;;;;;5101078;28;20400;-67
2021/06/07 06:19:32;;;;;;;5.53;2.50;;;;;;;;;;5107213;28;20404;-67
2021/06/07 06:22:03;;;;;;;5.47;2.72;;;;;;;;;;5106829;28;20445;-67
2021/06/07 06:24:29;;;;;;;5.43;2.47;;;;;;;;;;5105888;28;20518;-68
2021/06/07 06:26:55;;;;;;;6.20;2.50;;;;;;;;;;5106995;28;20442;-67
2021/06/07 06:29:21;;;;;;;9.48;2.60;;;;;;;;;;5099654;28;20394;-68
2021/06/07 06:31:47;;;;;;;4.75;2.40;;;;;;;;;;5092131;28;20422;-68
2021/06/07 06:34:13;;;;;;;5.90;2.30;;;;;;;;;;5082381;28;20467;-67
2021/06/07 06:36:39;;;;;;;5.65;2.17;;;;;;;;;;5084901;28;20403;-67
2021/06/07 06:39:06;;;;;;;5.47;1.95;;;;;;;;;;5081367;28;20480;-67
2021/06/07 06:41:33;;;;;;;4.55;1.88;;;;;;;;;;5082271;28;20408;-67
2021/06/07 06:43:59;;;;;;;3.67;1.73;;;;;;;;;;5084872;28;20386;-67
2021/06/07 06:46:25;;;;;;;4.03;1.70;;;;;;;;;;5084829;28;20481;-67
2021/06/07 06:48:51;;;;;;;5.30;1.80;;;;;;;;;;5081958;28;20568;-67
2021/06/07 06:51:17;;;;;;;3.83;1.65;;;;;;;;;;5085404;28;20496;-67
2021/06/07 06:53:44;;;;;;;3.95;1.58;;;;;;;;;;5083767;28;20635;-67
2021/06/07 06:56:10;;;;;;;5.75;1.73;;;;;;;;;;5081110;28;20884;-67
2021/06/07 06:58:36;;;;;;;3.83;1.38;;;;;;;;;;5085145;28;20395;-67
2021/06/07 07:01:02;;;;;;;4.13;1.40;;;;;;;;;;5085403;28;20498;-67
2021/06/07 07:03:27;;;;;;;4.50;1.50;;;;;;;;;;5079895;28;20399;-67
2021/06/07 07:05:55;;;;;;;3.70;1.50;;;;;;;;;;5080918;28;20389;-68
2021/06/07 07:08:21;;;;;;;4.70;1.40;;;;;;;;;;5084754;28;20506;-68
2021/06/07 07:10:48;;;;;;;6.35;1.83;;;;;;;;;;5083207;28;20426;-68
2021/06/07 07:13:14;;;;;;;4.30;1.35;;;;;;;;;;5083507;28;20428;-68
2021/06/07 07:15:40;;;;;;;4.45;1.25;;;;;;;;;;5081960;28;21106;-66
2021/06/07 07:18:07;;;;;;;4.82;1.33;;;;;;;;;;5084034;28;20737;-68
2021/06/07 07:20:33;;;;;;;3.40;1.10;;;;;;;;;;5080427;28;20397;-68
2021/06/07 07:22:59;;;;;;;2.47;1.02;;;;;;;;;;5083445;28;20402;-69
2021/06/07 07:25:25;;;;;;;3.43;1.30;;;;;;;;;;5084714;28;20889;-69
2021/06/07 07:27:51;;;;;;;3.83;1.10;;;;;;;;;;5082795;28;20424;-68
2021/06/07 07:30:18;;;;;;;3.25;1.08;;;;;;;;;;5083450;28;20429;-67
2021/06/07 07:32:46;;;;;;;4.18;1.00;;;;;;;;;;5094230;28;20431;-67
2021/06/07 07:35:12;;;;;;;2.70;1.30;;;;;;;;;;5106159;28;20461;-68
2021/06/07 07:37:38;;;;;;;2.75;1.20;;;;;;;;;;5104172;28;20394;-67
2021/06/07 07:40:05;;;;;;;3.10;1.23;;;;;;;;;;5102522;28;20452;-67
2021/06/07 07:42:31;;;;;;;5.50;1.65;;;;;;;;;;5109511;27;20384;-67
2021/06/07 07:44:57;;;;;;;6.00;1.63;;;;;;;;;;5105597;27;20412;-67
2021/06/07 07:47:23;;;;;;;3.65;1.23;;;;;;;;;;5104056;28;20430;-67
2021/06/07 07:49:49;;;;;;;5.38;1.60;;;;;;;;;;5108457;28;20833;-68
2021/06/07 07:52:15;;;;;;;9.32;1.80;;;;;;;;;;5098294;28;21180;-68
2021/06/07 07:54:41;;;;;;;5.00;1.23;;;;;;;;;;5091076;28;20918;-68
2021/06/07 07:57:11;;;;;;;5.30;1.42;;;;;;;;;;5102214;27;20392;-68
2021/06/07 07:59:37;;;;;;;4.60;1.25;;;;;;;;;;5100421;28;20934;-67
2021/06/07 08:02:03;;;;;;;8.57;1.50;;;;;;;;;;5101437;28;20475;-68
2021/06/07 08:04:29;;;;;;;8.15;1.77;;;;;;;;;;5101143;28;20843;-67
2021/06/07 08:06:55;;;;;;;4.15;1.40;;;;;;;;;;5102234;28;20872;-67
2021/06/07 08:09:21;;;;;;;6.32;1.65;;;;;;;;;;5105900;28;20396;-67
2021/06/07 08:11:47;;;;;;;5.50;1.60;;;;;;;;;;5099782;28;20511;-67
2021/06/07 08:14:13;;;;;;;5.60;1.50;;;;;;;;;;5104660;28;20439;-67
2021/06/07 08:16:39;;;;;;;4.38;1.45;;;;;;;;;;5103253;28;20385;-67
2021/06/07 08:19:05;;;;;;;5.05;1.50;;;;;;;;;;5104938;28;20399;-67
2021/06/07 08:21:31;;;;;;;5.25;1.40;;;;;;;;;;5101785;27;21169;-67
2021/06/07 08:23:57;;;;;;;5.38;1.70;;;;;;;;;;5102052;27;20388;-67
2021/06/07 08:26:23;;;;;;;5.32;1.80;;;;;;;;;;5102802;28;20396;-68
2021/06/07 08:28:49;;;;;;;4.13;1.70;;;;;;;;;;5106500;27;20429;-67
2021/06/07 08:31:15;;;;;;;6.15;1.70;;;;;;;;;;5093963;28;20420;-68
2021/06/07 08:33:42;;;;;;;4.38;1.58;;;;;;;;;;5079147;28;20685;-68
2021/06/07 08:36:08;;;;;;;5.13;1.80;;;;;;;;;;5099195;27;20775;-67
2021/06/07 08:38:36;;;;;;;3.75;1.40;;;;;;;;;;5095700;27;20396;-69
2021/06/07 08:41:03;;;;;;;4.72;1.58;;;;;;;;;;5100671;28;20780;-67
2021/06/07 08:43:29;;;;;;;4.45;1.58;;;;;;;;;;5102481;27;21159;-67
2021/06/07 08:45:55;;;;;;;5.38;1.67;;;;;;;;;;5102335;28;20492;-67
2021/06/07 08:48:21;;;;;;;5.18;1.60;;;;;;;;;;5097877;28;20713;-68
2021/06/07 08:50:48;;;;;;;6.20;1.98;;;;;;;;;;5095751;28;20397;-66
2021/06/07 08:53:14;;;;;;;4.80;1.90;;;;;;;;;;5082807;28;20923;-67
2021/06/07 08:55:41;;;;;;;4.70;1.50;;;;;;;;;;5102248;28;20407;-67
2021/06/07 08:58:07;;;;;;;4.97;1.80;;;;;;;;;;5103417;28;20390;-69
2021/06/07 09:00:36;;;;;;;4.88;1.88;;;;;;;;;;5105624;28;20479;-69
2021/06/07 09:03:03;;;;;;;7.20;1.92;;;;;;;;;;5099170;28;20819;-66
2021/06/07 09:05:30;;;;;;;4.47;1.70;;;;;;;;;;5096938;28;20911;-67
2021/06/07 09:07:56;;;;;;;4.60;1.70;;;;;;;;;;5099892;28;20813;-66
2021/06/07 09:10:23;;;;;;;6.93;1.65;;;;;;;;;;5101220;28;20776;-67
2021/06/07 09:12:56;;;;;;;5.47;1.50;;;;;;;;;;5106838;28;20412;-67
2021/06/07 09:15:31;;;;;;;5.22;1.80;;;;;;;;;;5108064;28;20393;-68
2021/06/07 09:17:57;;;;;;;4.68;1.80;;;;;;;;;;5104995;28;20861;-67
2021/06/07 09:20:23;;;;;;;4.00;1.70;;;;;;;;;;5111901;27;21889;-67
2021/06/07 09:22:52;;;;;;;4.85;1.73;;;;;;;;;;5114454;27;20415;-69
2021/06/07 09:25:18;;;;;;;4.15;1.65;;;;;;;;;;5111821;27;21469;-67
2021/06/07 09:27:59;;;;;;;4.80;1.55;;;;;;;;;;5119252;27;20380;-67
2021/06/07 09:30:27;;;;;;;4.53;1.65;;;;;;;;;;5115662;27;20428;-67
2021/06/07 09:33:11;;;;;;;3.22;1.40;;;;;;;;;;5111972;27;20412;-66
2021/06/07 09:35:37;;;;;;;5.03;1.83;;;;;;;;;;5111906;27;20873;-67
2021/06/07 09:38:04;;;;;;;5.80;1.70;;;;;;;;;;5116372;27;20380;-68
2021/06/07 09:40:31;;;;;;;3.90;1.87;;;;;;;;;;5105825;27;20384;-66
2021/06/07 09:42:58;;;;;;;4.63;1.85;;;;;;;;;;5112618;27;20396;-68
2021/06/07 09:45:42;;;;;;;5.90;1.50;;;;;;;;;;5107660;27;20404;-67
2021/06/07 09:48:09;;;;;;;5.75;1.75;;;;;;;;;;5107101;27;20398;-66
2021/06/07 09:50:36;;;;;;;5.93;1.70;;;;;;;;;;5106377;27;20403;-68
2021/06/07 09:53:02;;;;;;;4.57;1.75;;;;;;;;;;5107908;28;20441;-67
2021/06/07 09:55:28;;;;;;;4.77;1.93;;;;;;;;;;5104395;28;20376;-69
2021/06/07 09:57:55;;;;;;;4.65;1.88;;;;;;;;;;5108922;27;20409;-67
2021/06/07 10:00:42;;;;;;;4.82;1.80;;;;;;;;;;5100485;28;20392;-68
2021/06/07 10:03:18;;;;;;;4.25;1.60;;;;;;;;;;5105121;28;20406;-67
2021/06/07 10:05:44;;;;;;;6.18;2.05;;;;;;;;;;5103560;28;20866;-67
2021/06/07 10:08:10;;;;;;;7.00;2.22;;;;;;;;;;5102005;28;20393;-67
2021/06/07 10:10:37;;;;;;;5.38;2.00;;;;;;;;;;5100755;28;20398;-67
2021/06/07 10:13:08;;;;;;;5.60;2.45;;;;;;;;;;5107039;27;20426;-68
2021/06/07 10:15:38;;;;;;;5.50;2.00;;;;;;;;;;5104850;28;20392;-67
2021/06/07 10:18:06;;;;;;;5.05;2.33;;;;;;;;;;5103241;28;20392;-67
2021/06/07 10:22:58;;;;;;;6.30;2.08;;;;;;;;;;5107503;28;20877;-67
2021/06/07 10:25:24;;;;;;;11.20;2.10;;;;;;;;;;5102582;28;20440;-67
2021/06/07 10:27:51;;;;;;;6.43;1.95;;;;;;;;;;5102979;28;20403;-67
2021/06/07 10:30:21;;;;;;;4.38;1.98;;;;;;;;;;5099429;28;20736;-68
2021/06/07 10:32:48;;;;;;;4.40;1.77;;;;;;;;;;5091187;28;20425;-69
2021/06/07 10:35:26;;;;;;;4.20;1.50;;;;;;;;;;5084569;28;20398;-67
2021/06/07 10:38:08;;;;;;;5.53;2.03;;;;;;;;;;5086015;28;20488;-67
2021/06/07 10:40:37;;;;;;;5.20;1.80;;;;;;;;;;5085942;28;20405;-67
2021/06/07 10:43:04;;;;;;;5.35;1.92;;;;;;;;;;5080215;28;20462;-68
2021/06/07 10:45:31;;;;;;;6.40;1.83;;;;;;;;;;5078486;28;20402;-67
2021/06/07 10:48:00;;;;;;;5.45;2.30;;;;;;;;;;5078727;28;20397;-68
2021/06/07 10:50:28;;;;;;;4.90;1.70;;;;;;;;;;5081076;28;20405;-67
2021/06/07 10:52:59;;;;;;;4.35;1.73;;;;;;;;;;5057861;28;20524;-67
2021/06/07 10:55:31;;;;;;;6.55;1.85;;;;;;;;;;5079130;28;20410;-68
2021/06/07 10:57:59;;;;;;;4.20;1.88;;;;;;;;;;5072059;28;20441;-67
2021/06/07 11:00:31;;;;;;;5.30;1.83;;;;;;;;;;5082000;28;20955;-69
2021/06/07 11:03:03;;;;;;;4.40;1.93;;;;;;;;;;5079499;28;20408;-67
2021/06/07 11:05:49;;;;;;;4.53;2.13;;;;;;;;;;5083042;28;20419;-68
2021/06/07 11:08:19;;;;;;;4.90;1.85;;;;;;;;;;5056946;28;20411;-67
2021/06/07 11:10:49;;;;;;;4.05;1.80;;;;;;;;;;5064158;28;20713;-67
2021/06/07 11:13:16;;;;;;;5.53;2.10;;;;;;;;;;5081854;28;20491;-67
2021/06/07 11:15:54;;;;;;;7.00;2.40;;;;;;;;;;5079427;28;20467;-67
2021/06/07 11:18:31;;;;;;;6.75;2.38;;;;;;;;;;5079864;28;20424;-67
2021/06/07 11:21:01;;;;;;;3.90;1.73;;;;;;;;;;5078291;28;20407;-67
2021/06/07 11:23:41;;;;;;;4.63;1.90;;;;;;;;;;5078362;28;20450;-68
2021/06/07 11:26:10;;;;;;;4.13;1.90;;;;;;;;;;5081911;28;20493;-67
2021/06/07 11:28:42;;;;;;;5.97;2.22;;;;;;;;;;5077595;28;20398;-67
2021/06/07 11:31:27;;;;;;;5.07;2.33;;;;;;;;;;5075349;28;20453;-69
2021/06/07 11:34:06;;;;;;;5.20;1.88;;;;;;;;;;5081397;28;20425;-68
2021/06/07 11:36:40;;;;;;;7.03;2.60;;;;;;;;;;5081647;28;20417;-67
2021/06/07 11:39:11;;;;;;;4.28;2.17;;;;;;;;;;5081002;28;20398;-68
2021/06/07 11:41:56;;;;;;;5.72;2.05;;;;;;;;;;5076090;28;20497;-67
2021/06/07 11:44:41;;;;;;;5.28;2.00;;;;;;;;;;5082240;28;20404;-68
2021/06/07 11:47:07;;;;;;;5.63;2.10;;;;;;;;;;5080991;28;20575;-68
2021/06/07 11:49:33;;;;;;;4.77;2.10;;;;;;;;;;5075372;28;20525;-68
2021/06/07 11:52:02;;;;;;;5.03;2.00;;;;;;;;;;5076769;28;20480;-67
2021/06/07 11:54:28;;;;;;;4.70;1.70;;;;;;;;;;5077666;28;20410;-68
2021/06/07 11:56:54;;;;;;;4.97;1.87;;;;;;;;;;5061220;28;20872;-67
2021/06/07 11:59:41;;;;;;;5.00;2.30;;;;;;;;;;5075414;28;20846;-67
2021/06/07 12:02:13;;;;;;;5.38;2.30;;;;;;;;;;5074841;28;20394;-68
2021/06/07 12:04:39;;;;;;;7.05;2.20;;;;;;;;;;5065622;28;20828;-67
2021/06/07 12:07:09;;;;;;;6.07;2.00;;;;;;;;;;5085521;28;20484;-67
2021/06/07 12:09:37;;;;;;;5.15;1.80;;;;;;;;;;5077818;28;20386;-67
2021/06/07 12:12:04;;;;;;;4.55;2.00;;;;;;;;;;5074312;28;20512;-67
2021/06/07 12:14:36;;;;;;;5.77;1.70;;;;;;;;;;5076687;28;20453;-67
2021/06/07 12:17:10;;;;;;;4.10;1.80;;;;;;;;;;5075825;28;20864;-66
2021/06/07 12:19:42;;;;;;;4.45;1.80;;;;;;;;;;5075277;28;20484;-67
2021/06/07 12:22:27;;;;;;;3.65;1.50;;;;;;;;;;5074389;28;20436;-68
2021/06/07 12:24:55;;;;;;;6.57;1.95;;;;;;;;;;5075756;28;20535;-66
2021/06/07 12:30:17;;;;;;;4.78;1.52;;;;;;;;;;5078111;28;20932;-67
2021/06/07 12:32:43;;;;;;;4.22;1.77;;;;;;;;;;5092644;28;20453;-67
2021/06/07 12:35:12;;;;;;;4.68;1.58;;;;;;;;;;5104671;27;20390;-68
2021/06/07 12:37:49;;;;;;;5.53;1.60;;;;;;;;;;5095919;28;21202;-68
2021/06/07 12:40:22;;;;;;;5.35;1.90;;;;;;;;;;5096839;28;20414;-68
2021/06/07 12:43:11;;;;;;;4.28;2.03;;;;;;;;;;5105977;27;20746;-68
2021/06/07 12:45:38;;;;;;;5.63;1.67;;;;;;;;;;5077322;28;20486;-68
2021/06/07 12:48:15;;;;;;;3.95;1.70;;;;;;;;;;5097071;28;20392;-69
2021/06/07 12:50:44;;;;;;;5.25;1.65;;;;;;;;;;5097165;28;20408;-67
2021/06/07 12:53:11;;;;;;;4.50;1.90;;;;;;;;;;5093911;28;20461;-67
2021/06/07 12:55:38;;;;;;;3.85;1.48;;;;;;;;;;5100844;28;20467;-67
2021/06/07 12:58:08;;;;;;;4.35;1.75;;;;;;;;;;5102752;28;20522;-68
2021/06/07 13:00:37;;;;;;;5.18;1.70;;;;;;;;;;5097311;28;20403;-69
2021/06/07 13:03:07;;;;;;;6.00;2.05;;;;;;;;;;5097476;28;20499;-68
2021/06/07 13:05:37;;;;;;;6.07;1.90;;;;;;;;;;5099995;28;20395;-67
2021/06/07 13:08:29;;;;;;;5.70;2.30;;;;;;;;;;5097394;28;20465;-68
2021/06/07 13:11:13;;;;;;;4.40;2.00;;;;;;;;;;5093269;28;20430;-67
2021/06/07 13:13:39;;;;;;;5.45;1.77;;;;;;;;;;5095072;28;20427;-67
2021/06/07 13:16:10;;;;;;;5.43;1.90;;;;;;;;;;5094383;28;20476;-67
2021/06/07 13:18:55;;;;;;;5.70;2.30;;;;;;;;;;5101749;28;20482;-67
2021/06/07 13:21:46;;;;;;;4.57;1.80;;;;;;;;;;5098320;28;21032;-68
2021/06/07 13:24:13;;;;;;;4.25;1.92;;;;;;;;;;5083742;28;20408;-68
2021/06/07 13:26:43;;;;;;;4.88;2.10;;;;;;;;;;5093134;28;20400;-68
2021/06/07 13:29:31;;;;;;;7.63;2.42;;;;;;;;;;5097773;28;20726;-67
2021/06/07 13:32:19;;;;;;;7.47;2.25;;;;;;;;;;5099136;28;20503;-67
2021/06/07 13:34:56;;;;;;;4.78;2.05;;;;;;;;;;5096712;28;20406;-67
2021/06/07 13:37:32;;;;;;;5.57;1.90;;;;;;;;;;5103699;28;20472;-68
2021/06/07 13:39:59;;;;;;;4.28;1.95;;;;;;;;;;5096898;28;20530;-67
2021/06/07 13:42:25;;;;;;;4.70;1.73;;;;;;;;;;5087024;28;20412;-68
2021/06/07 13:44:53;;;;;;;5.13;1.90;;;;;;;;;;5099065;28;20395;-67
2021/06/07 13:47:21;;;;;;;4.43;1.70;;;;;;;;;;5096089;28;20731;-68
2021/06/07 13:49:59;;;;;;;4.95;1.80;;;;;;;;;;5094315;28;20412;-68
2021/06/07 13:52:35;;;;;;;3.88;1.90;;;;;;;;;;5100043;28;20511;-68
2021/06/07 13:55:01;;;;;;;6.40;2.27;;;;;;;;;;5093545;28;20384;-68
2021/06/07 13:57:28;;;;;;;4.30;1.90;;;;;;;;;;5090367;28;20460;-68
2021/06/07 13:59:54;;;;;;;5.95;2.00;;;;;;;;;;5097007;28;20437;-68
2021/06/07 14:02:20;;;;;;;3.88;1.85;;;;;;;;;;5092476;27;20475;-68
2021/06/07 14:04:46;;;;;;;4.57;2.30;;;;;;;;;;5097875;27;20432;-67
2021/06/07 14:07:12;;;;;;;5.80;2.75;;;;;;;;;;5096639;27;20398;-67
2021/06/07 14:09:38;;;;;;;3.80;1.80;;;;;;;;;;5101523;28;20453;-67
2021/06/07 14:12:04;;;;;;;5.13;2.17;;;;;;;;;;5099092;28;20415;-68
2021/06/07 14:14:30;;;;;;;4.95;1.90;;;;;;;;;;5086328;27;20400;-68
2021/06/07 14:16:57;;;;;;;4.13;1.80;;;;;;;;;;5107454;27;20927;-69
2021/06/07 14:19:23;;;;;;;3.83;1.80;;;;;;;;;;5086475;28;20398;-67
2021/06/07 14:24:42;;;;;;;6.13;1.80;;;;;;;;;;5071816;27;20580;-69
2021/06/07 14:27:11;;;;;;;8.43;2.20;;;;;;;;;;5094872;28;20371;-67
2021/06/07 14:29:38;;;;;;;5.13;2.20;;;;;;;;;;5103153;27;20968;-68
2021/06/07 14:32:05;;;;;;;5.35;2.20;;;;;;;;;;5121726;27;20434;-67
2021/06/07 14:34:31;;;;;;;4.80;2.10;;;;;;;;;;5111746;27;20946;-67
2021/06/07 14:36:57;;;;;;;5.88;2.40;;;;;;;;;;5101641;28;20400;-67
2021/06/07 14:39:23;;;;;;;5.18;2.53;;;;;;;;;;5108539;27;20399;-66
2021/06/07 14:41:50;;;;;;;6.10;2.40;;;;;;;;;;5102561;28;20392;-67
2021/06/07 14:44:16;;;;;;;6.03;2.30;;;;;;;;;;5105323;27;20430;-67
2021/06/07 14:46:42;;;;;;;7.13;2.17;;;;;;;;;;5099405;27;20405;-67
2021/06/07 14:49:08;;;;;;;5.63;1.90;;;;;;;;;;5102844;27;20452;-68
2021/06/07 14:51:35;;;;;;;4.63;2.17;;;;;;;;;;5097535;28;20417;-67
2021/06/07 14:54:01;;;;;;;3.28;1.83;;;;;;;;;;5100201;28;20441;-67
2021/06/07 14:56:27;;;;;;;4.70;2.20;;;;;;;;;;5097344;28;20419;-67